Time;durP1;ratioP1;P1;durP2;ratioP2;P2;SDS_P1;SDS_P2;PMS_P1;PMS_P2;Temp;Humidity;BMP_temperature;BMP_pressure;BME280_temperature;BME280_humidity;BME280_pressure;Samples;Min_cycle;Max_cycle;Signal;HPM_P1;HPM_P2
2022/01/10 00:00:59;;;;;;;3.72;1.38;;;;;;;3.45;68.95;96960.00;12724562;23;20063;-77
2022/01/10 00:06:20;;;;;;;4.90;1.60;;;;;;;3.46;68.55;96971.75;12758864;23;20028;-75
2022/01/10 00:11:41;;;;;;;4.28;1.65;;;;;;;3.47;68.37;96967.69;12758673;23;20027;-75
2022/01/10 00:17:03;;;;;;;4.15;1.40;;;;;;;3.51;67.96;96973.56;12778971;23;20013;-75
2022/01/10 00:22:26;;;;;;;5.82;2.05;;;;;;;3.52;68.40;96983.28;12758879;23;20017;-75
2022/01/10 00:27:47;;;;;;;4.68;1.60;;;;;;;3.52;68.42;96985.31;12779737;23;20336;-75
2022/01/10 00:33:10;;;;;;;3.22;1.70;;;;;;;3.53;68.39;96984.03;12779212;23;20020;-75
2022/01/10 00:38:31;;;;;;;6.97;2.15;;;;;;;3.54;67.87;96991.00;12779631;23;20305;-75
2022/01/10 00:43:52;;;;;;;5.15;2.10;;;;;;;3.54;68.15;96988.97;12778232;23;20017;-75
2022/01/10 00:49:14;;;;;;;6.38;1.60;;;;;;;3.56;68.12;97004.97;12779358;23;20021;-75
2022/01/10 00:54:35;;;;;;;5.53;1.67;;;;;;;3.52;68.13;96999.13;12778894;23;20020;-76
2022/01/10 00:59:56;;;;;;;3.88;1.42;;;;;;;3.54;67.56;97011.06;12733535;23;20035;-75
2022/01/10 01:05:19;;;;;;;4.35;1.92;;;;;;;3.51;67.98;97028.75;12763114;23;20036;-75
2022/01/10 01:27:20;;;;;;;5.20;1.70;;;;;;;3.48;68.29;97045.72;12766049;23;20021;-75
2022/01/10 01:32:41;;;;;;;5.65;1.60;;;;;;;3.39;68.89;97056.06;12782989;23;20021;-75
2022/01/10 01:38:02;;;;;;;3.90;1.65;;;;;;;3.36;68.93;97059.94;12761598;23;20039;-75
2022/01/10 01:43:23;;;;;;;4.57;2.05;;;;;;;3.32;68.63;97067.88;12781106;23;20013;-75
2022/01/10 01:48:45;;;;;;;3.03;1.38;;;;;;;3.32;68.94;97072.66;12760448;23;20071;-75
2022/01/10 01:54:09;;;;;;;5.75;1.90;;;;;;;3.34;68.75;97075.59;12741766;23;20599;-75
2022/01/10 01:59:31;;;;;;;4.40;1.80;;;;;;;3.34;69.00;97086.63;12754274;23;20096;-76
2022/01/10 02:04:52;;;;;;;4.72;1.60;;;;;;;3.31;69.37;97082.97;12735095;23;20017;-76
2022/01/10 02:10:13;;;;;;;3.63;1.80;;;;;;;3.31;68.81;97104.31;12736247;23;20020;-76
2022/01/10 02:21:16;;;;;;;5.50;1.65;;;;;;;3.27;69.58;97112.22;12764453;23;20025;-75
2022/01/10 02:26:39;;;;;;;4.47;1.90;;;;;;;3.17;70.01;97106.59;12761365;23;20013;-76
2022/01/10 02:32:00;;;;;;;5.15;2.00;;;;;;;3.19;70.03;97119.84;12761606;23;20017;-75
2022/01/10 02:37:35;;;;;;;5.50;1.83;;;;;;;3.14;69.75;97136.03;12760919;23;20013;-76
2022/01/10 02:43:00;;;;;;;5.55;2.00;;;;;;;3.08;70.02;97127.22;12760873;23;20180;-75
2022/01/10 02:48:21;;;;;;;5.80;2.00;;;;;;;3.09;70.49;97139.00;12740291;23;20088;-75
2022/01/10 02:53:43;;;;;;;4.65;1.75;;;;;;;3.10;69.99;97141.19;12781141;23;20013;-75
2022/01/10 02:59:04;;;;;;;4.45;2.17;;;;;;;3.09;70.07;97153.53;12740560;23;20032;-75
2022/01/10 03:04:25;;;;;;;7.70;2.50;;;;;;;3.09;70.43;97150.03;12768159;23;20017;-75
2022/01/10 03:09:47;;;;;;;6.30;2.20;;;;;;;3.09;70.89;97161.06;12780320;23;20415;-75
2022/01/10 03:15:08;;;;;;;4.10;1.63;;;;;;;3.08;70.79;97167.84;12760268;23;20095;-75
2022/01/10 03:20:30;;;;;;;4.57;1.52;;;;;;;3.06;70.29;97173.94;12779948;23;20080;-76
2022/01/10 03:25:51;;;;;;;6.43;2.17;;;;;;;3.04;70.54;97182.03;12801183;23;20023;-75
2022/01/10 03:31:13;;;;;;;3.88;1.70;;;;;;;3.00;71.10;97195.47;12757731;23;20072;-76
2022/01/10 03:36:37;;;;;;;6.35;2.38;;;;;;;2.97;71.29;97204.84;12777751;23;20021;-76
2022/01/10 03:41:59;;;;;;;6.57;2.17;;;;;;;2.99;71.02;97207.03;12736850;23;20028;-76
2022/01/10 03:47:22;;;;;;;4.32;1.92;;;;;;;3.04;70.61;97211.63;12756378;23;20021;-75
2022/01/10 03:52:44;;;;;;;5.05;1.98;;;;;;;3.02;70.67;97214.94;12757317;23;20017;-76
2022/01/10 03:58:06;;;;;;;5.18;1.95;;;;;;;3.01;71.03;97210.72;12796754;23;20376;-76
2022/01/10 04:03:27;;;;;;;4.07;1.77;;;;;;;3.04;70.79;97220.63;12667697;23;20021;-78
2022/01/10 04:08:56;;;;;;;5.30;2.30;;;;;;;3.01;71.49;97230.03;12638433;23;20101;-76
2022/01/10 04:14:20;;;;;;;4.65;1.80;;;;;;;3.01;70.95;97235.53;12674813;23;20038;-76
2022/01/10 04:19:41;;;;;;;5.13;2.00;;;;;;;3.02;71.28;97247.31;12634860;23;20089;-76
2022/01/10 04:25:04;;;;;;;5.68;2.08;;;;;;;3.02;71.47;97256.31;12654470;23;20018;-76
2022/01/10 04:30:27;;;;;;;6.43;2.70;;;;;;;3.05;71.30;97266.22;12634524;23;20050;-78
2022/01/10 04:35:51;;;;;;;5.85;2.65;;;;;;;3.06;71.22;97272.47;12655713;23;20022;-75
2022/01/10 04:41:13;;;;;;;4.97;2.15;;;;;;;3.05;71.83;97280.00;12654543;23;20045;-76
2022/01/10 04:46:34;;;;;;;8.35;2.38;;;;;;;3.10;71.37;97295.63;12633080;23;20017;-76
2022/01/10 04:51:55;;;;;;;5.63;2.20;;;;;;;3.10;71.18;97295.63;12653798;23;20021;-75
2022/01/10 04:57:17;;;;;;;7.80;2.42;;;;;;;3.15;71.74;97300.19;12614551;23;20025;-76
2022/01/10 05:02:40;;;;;;;5.03;2.80;;;;;;;3.16;71.64;97304.44;12729736;23;20033;-75
2022/01/10 05:08:06;;;;;;;6.85;2.50;;;;;;;3.16;71.44;97309.94;12737629;23;20017;-76
2022/01/10 05:13:30;;;;;;;4.57;2.47;;;;;;;3.20;71.15;97325.41;12737552;23;20017;-77
2022/01/10 05:18:52;;;;;;;6.78;2.65;;;;;;;3.22;71.32;97322.81;12715609;23;20332;-76
2022/01/10 05:24:13;;;;;;;5.53;2.70;;;;;;;3.22;71.66;97328.34;12735141;23;20026;-76
2022/01/10 05:29:35;;;;;;;6.60;2.85;;;;;;;3.24;71.29;97342.31;12688535;23;20336;-76
2022/01/10 05:34:56;;;;;;;9.20;3.00;;;;;;;3.26;71.87;97350.75;12716512;23;20092;-76
2022/01/10 05:40:21;;;;;;;8.15;3.03;;;;;;;3.28;71.67;97361.97;12673598;23;20049;-76
2022/01/10 05:45:44;;;;;;;4.32;2.67;;;;;;;3.29;71.38;97366.22;12734827;23;20013;-76
2022/01/10 05:51:07;;;;;;;6.70;3.05;;;;;;;3.29;71.38;97377.97;12674815;23;20037;-76
2022/01/10 05:56:32;;;;;;;7.82;3.72;;;;;;;3.31;71.56;97378.16;12714341;23;20021;-76
2022/01/10 06:01:53;;;;;;;8.55;3.33;;;;;;;3.29;71.66;97385.53;12703654;23;20029;-76
2022/01/10 06:07:17;;;;;;;;;;;;;;;3.30;70.87;97400.78;12678682;23;20041;-76
2022/01/10 06:12:40;;;;;;;11.02;3.80;;;;;;;3.31;71.37;97411.25;12717469;23;19920;-76
2022/01/10 06:18:02;;;;;;;6.28;3.15;;;;;;;3.35;71.27;97424.66;12717419;23;20455;-77
2022/01/10 06:23:25;;;;;;;11.07;3.97;;;;;;;3.38;71.18;97429.09;12717316;23;20013;-76
2022/01/10 06:28:47;;;;;;;6.82;3.28;;;;;;;3.41;71.12;97433.50;12718161;23;20017;-76
2022/01/10 06:34:08;;;;;;;7.53;3.30;;;;;;;3.45;71.17;97442.13;12695937;23;20543;-76
2022/01/10 06:39:30;;;;;;;9.32;3.90;;;;;;;3.49;70.94;97461.09;12676955;23;20029;-76
2022/01/10 06:44:52;;;;;;;7.97;3.45;;;;;;;3.49;70.41;97469.38;12676519;23;20028;-76
2022/01/10 06:50:14;;;;;;;8.98;3.70;;;;;;;3.55;70.86;97492.72;12697239;23;20021;-76
2022/01/10 06:55:38;;;;;;;10.48;3.65;;;;;;;3.57;71.08;97508.72;12697281;23;20101;-76
2022/01/10 07:01:00;;;;;;;7.28;2.90;;;;;;;3.55;71.03;97509.28;12703970;23;20025;-77
2022/01/10 07:06:22;;;;;;;8.90;3.55;;;;;;;3.56;71.28;97516.25;12673639;23;20049;-76
2022/01/10 07:11:45;;;;;;;10.60;3.63;;;;;;;3.58;70.81;97527.50;12693238;23;20437;-76
2022/01/10 07:17:06;;;;;;;6.38;2.88;;;;;;;3.60;70.93;97538.00;12672937;23;20024;-76
2022/01/10 07:22:28;;;;;;;6.90;3.58;;;;;;;3.69;70.85;97551.22;12715000;23;20033;-76
2022/01/10 07:27:50;;;;;;;5.53;2.90;;;;;;;3.74;71.12;97556.56;12675455;23;20033;-76
2022/01/10 07:33:11;;;;;;;7.32;3.10;;;;;;;3.84;71.03;97553.22;12695246;23;20018;-76
2022/01/10 07:38:35;;;;;;;4.75;2.70;;;;;;;3.85;71.03;97560.22;12715413;23;20017;-76
2022/01/10 07:43:56;;;;;;;7.63;3.33;;;;;;;3.97;70.29;97573.13;12716692;23;20437;-76
2022/01/10 07:49:18;;;;;;;6.95;3.00;;;;;;;4.09;70.86;97589.31;12652554;23;20340;-76
2022/01/10 07:54:39;;;;;;;9.25;3.80;;;;;;;4.12;70.93;97599.97;12675679;23;20025;-76
2022/01/10 08:00:01;;;;;;;7.60;3.37;;;;;;;4.21;70.70;97598.66;12680273;23;1167383;-76
2022/01/10 08:05:32;;;;;;;9.60;3.33;;;;;;;4.27;70.58;97607.50;12748927;23;20298;-76
2022/01/10 08:10:55;;;;;;;10.30;3.58;;;;;;;4.29;70.08;97616.72;12739533;23;20040;-76
2022/01/10 08:16:17;;;;;;;8.45;4.15;;;;;;;4.28;70.12;97620.03;12738867;23;20079;-76
2022/01/10 08:21:38;;;;;;;7.30;3.97;;;;;;;4.25;70.26;97627.41;12738107;23;20021;-76
2022/01/10 08:27:00;;;;;;;10.32;3.97;;;;;;;4.29;69.83;97640.84;12738335;23;20305;-76
2022/01/10 08:32:21;;;;;;;8.55;4.43;;;;;;;4.31;70.22;97652.81;12738743;23;20045;-76
2022/01/10 08:37:42;;;;;;;9.13;3.65;;;;;;;4.34;70.39;97661.28;12758163;23;20424;-76
2022/01/10 08:43:06;;;;;;;8.90;4.22;;;;;;;4.39;70.05;97669.38;12778782;23;20017;-76
2022/01/10 08:48:28;;;;;;;11.70;4.10;;;;;;;4.37;69.73;97677.50;12759937;23;20340;-76
2022/01/10 08:53:49;;;;;;;9.63;4.32;;;;;;;4.46;69.99;97687.25;12738302;23;20025;-76
2022/01/10 08:59:11;;;;;;;11.50;4.60;;;;;;;4.56;69.88;97694.44;12735604;23;20040;-76
2022/01/10 09:04:32;;;;;;;10.32;4.60;;;;;;;4.59;69.84;97707.13;12737380;23;20353;-76
2022/01/10 09:09:54;;;;;;;11.10;4.05;;;;;;;4.69;69.76;97712.84;12757647;23;20068;-76
2022/01/10 09:15:15;;;;;;;11.10;4.47;;;;;;;4.85;69.46;97713.53;12757862;23;20029;-76
2022/01/10 09:20:37;;;;;;;9.50;4.47;;;;;;;4.97;69.30;97722.19;12737231;23;20020;-76
2022/01/10 09:25:58;;;;;;;11.38;4.50;;;;;;;4.95;68.81;97733.81;12738308;23;20083;-76
2022/01/10 09:31:22;;;;;;;8.32;4.47;;;;;;;4.99;69.09;97744.47;12821211;23;20021;-76
2022/01/10 09:36:43;;;;;;;10.73;4.67;;;;;;;5.07;69.19;97743.16;12761904;23;20021;-76
2022/01/10 09:42:05;;;;;;;10.50;5.32;;;;;;;5.15;68.61;97752.19;12762091;23;20440;-76
2022/01/10 09:47:27;;;;;;;9.30;5.70;;;;;;;5.14;68.66;97755.50;12761855;23;20021;-76
2022/01/10 09:52:49;;;;;;;11.15;5.53;;;;;;;5.19;68.93;97768.41;12761822;23;20088;-75
2022/01/10 09:58:12;;;;;;;13.05;4.90;;;;;;;5.09;68.47;97773.78;12721078;23;20017;-76
2022/01/10 10:03:34;;;;;;;11.68;5.70;;;;;;;5.01;68.32;97778.59;12742004;23;20441;-76
2022/01/10 10:09:06;;;;;;;9.60;4.70;;;;;;;4.95;68.79;97780.81;12781464;23;20021;-76
2022/01/10 10:14:28;;;;;;;9.30;4.85;;;;;;;4.91;68.44;97788.00;12762015;23;20021;-76
2022/01/10 10:19:51;;;;;;;8.13;4.88;;;;;;;4.84;68.96;97793.03;12762271;23;20020;-76
2022/01/10 10:25:13;;;;;;;9.25;4.93;;;;;;;4.77;68.96;97801.31;12767009;23;20088;-81
2022/01/10 10:30:35;;;;;;;8.95;5.43;;;;;;;4.74;68.65;97803.16;12747864;23;20028;-81
2022/01/10 10:36:03;;;;;;;9.10;5.03;;;;;;;4.76;68.89;97811.63;12732205;23;20013;-77
2022/01/10 10:41:25;;;;;;;10.32;5.38;;;;;;;4.75;69.08;97820.50;12759544;23;20017;-77
2022/01/10 10:46:48;;;;;;;11.27;5.72;;;;;;;4.72;69.33;97832.66;12757350;23;20020;-77
2022/01/10 10:52:10;;;;;;;11.68;5.15;;;;;;;4.73;69.85;97845.94;12758331;23;20036;-77
2022/01/10 10:57:32;;;;;;;9.30;5.28;;;;;;;4.66;69.83;97845.94;12757382;23;20467;-78
2022/01/10 11:02:54;;;;;;;9.02;5.03;;;;;;;4.66;69.96;97851.47;12752372;23;20332;-80
2022/01/10 11:08:17;;;;;;;9.85;6.07;;;;;;;4.67;70.26;97861.22;12763929;23;20013;-78
2022/01/10 11:13:43;;;;;;;9.10;5.70;;;;;;;4.60;70.20;97877.25;12726464;23;20442;-80
2022/01/10 11:19:15;;;;;;;12.13;6.45;;;;;;;4.56;70.39;97878.91;12773771;23;20087;-81
2022/01/10 11:24:42;;;;;;;13.15;6.55;;;;;;;4.53;70.51;97889.03;12784045;23;20013;-81
2022/01/10 11:30:28;;;;;;;12.77;6.88;;;;;;;4.56;70.08;97884.44;12786142;23;20017;-81
2022/01/10 11:35:53;;;;;;;11.18;6.18;;;;;;;4.61;70.97;97900.09;12763140;23;20032;-80
2022/01/10 11:41:35;;;;;;;9.50;5.65;;;;;;;4.52;70.56;97908.94;12761710;23;20032;-79
2022/01/10 11:46:58;;;;;;;9.27;5.28;;;;;;;4.43;71.15;97917.75;12807115;23;20021;-80
2022/01/10 11:52:19;;;;;;;9.23;5.35;;;;;;;4.41;71.19;97920.34;12763984;23;20025;-80
2022/01/10 11:57:45;;;;;;;8.98;4.72;;;;;;;4.41;70.74;97925.88;12767482;23;20021;-80
2022/01/10 12:03:06;;;;;;;8.23;5.22;;;;;;;4.35;71.24;97933.59;12764408;23;20021;-80
2022/01/10 12:08:27;;;;;;;12.35;5.75;;;;;;;4.35;71.47;97952.94;12771663;23;20345;-81
2022/01/10 12:13:49;;;;;;;9.60;5.32;;;;;;;4.41;71.40;97956.28;12798674;23;20417;-80
2022/01/10 12:19:11;;;;;;;8.45;4.78;;;;;;;4.40;71.02;97963.81;12815701;23;20435;-81
2022/01/10 12:24:33;;;;;;;6.45;4.75;;;;;;;4.40;71.58;97968.63;12776748;23;20056;-80
2022/01/10 12:29:54;;;;;;;8.07;4.68;;;;;;;4.39;71.33;97980.97;12803423;23;20000;-84
2022/01/10 12:35:16;;;;;;;9.25;4.97;;;;;;;4.39;71.52;97989.25;12817408;23;20028;-82
2022/01/10 12:40:37;;;;;;;7.63;4.55;;;;;;;4.31;71.41;98001.00;12777855;23;20041;-77
2022/01/10 12:45:59;;;;;;;8.07;5.35;;;;;;;4.38;71.91;98007.13;12758429;23;20439;-78
2022/01/10 12:51:24;;;;;;;10.50;5.03;;;;;;;4.34;71.12;98026.06;12762237;23;20017;-78
2022/01/10 12:56:56;;;;;;;7.53;4.93;;;;;;;4.35;71.71;98028.31;12764033;23;20013;-76
2022/01/10 13:02:18;;;;;;;8.43;5.47;;;;;;;4.32;71.85;98041.19;12742270;23;20467;-76
2022/01/10 13:07:59;;;;;;;6.38;4.93;;;;;;;4.43;72.03;98045.66;12742637;23;20013;-76
2022/01/10 13:13:22;;;;;;;7.30;4.63;;;;;;;4.53;71.34;98054.91;12757267;23;20511;-77
2022/01/10 13:18:59;;;;;;;7.07;5.10;;;;;;;4.62;71.80;98067.47;12778272;23;20028;-76
2022/01/10 13:24:22;;;;;;;7.03;4.93;;;;;;;4.67;71.61;98080.41;12759361;23;20041;-76
2022/01/10 13:29:55;;;;;;;6.40;4.78;;;;;;;4.59;71.42;98090.69;12758595;23;20041;-76
2022/01/10 13:35:21;;;;;;;8.43;5.07;;;;;;;4.55;71.79;98101.38;12740511;23;20013;-76
2022/01/10 13:40:47;;;;;;;8.23;4.78;;;;;;;4.57;71.77;98110.59;12779304;23;20069;-76
2022/01/10 13:46:18;;;;;;;11.98;5.65;;;;;;;4.59;71.86;98118.34;12777388;23;20021;-76
2022/01/10 13:51:40;;;;;;;9.05;5.65;;;;;;;4.64;71.48;98125.03;12778259;23;20025;-76
2022/01/10 13:57:25;;;;;;;9.20;5.57;;;;;;;4.61;71.93;98126.84;12778074;23;20017;-76
2022/01/10 14:02:46;;;;;;;8.60;5.70;;;;;;;4.64;71.62;98130.56;12642297;23;20089;-76
2022/01/10 14:08:13;;;;;;;8.35;5.40;;;;;;;4.63;71.49;98143.63;12655165;23;20096;-76
2022/01/10 14:13:34;;;;;;;8.50;5.15;;;;;;;4.51;71.84;98153.50;12675807;23;20065;-76
2022/01/10 14:18:55;;;;;;;9.45;5.35;;;;;;;4.46;72.03;98159.94;12637202;23;20017;-76
2022/01/10 14:24:19;;;;;;;9.15;5.10;;;;;;;4.45;72.01;98169.53;12639768;23;20045;-76
2022/01/10 14:29:41;;;;;;;7.33;5.20;;;;;;;4.46;72.04;98174.50;12679662;23;20022;-76
2022/01/10 14:35:03;;;;;;;6.78;4.68;;;;;;;4.44;72.22;98179.84;12656778;23;20081;-77
2022/01/10 14:40:23;;;;;;;7.43;5.38;;;;;;;4.41;71.91;98191.97;12656047;23;20025;-77
2022/01/10 14:45:46;;;;;;;9.25;4.95;;;;;;;4.37;72.05;98204.66;12676072;23;20038;-77
2022/01/10 14:51:09;;;;;;;6.75;4.43;;;;;;;4.27;72.50;98210.66;12656062;23;20385;-77
2022/01/10 14:56:31;;;;;;;7.40;4.43;;;;;;;4.18;72.21;98224.22;12678176;23;20029;-77
2022/01/10 15:01:52;;;;;;;5.82;3.80;;;;;;;4.19;72.47;98225.69;12643941;23;20022;-76
2022/01/10 15:07:13;;;;;;;4.88;3.50;;;;;;;4.19;72.41;98226.44;12618820;23;20100;-77
2022/01/10 15:12:34;;;;;;;5.43;3.45;;;;;;;4.17;72.85;98231.03;12679155;23;20018;-76
2022/01/10 15:17:56;;;;;;;5.68;3.53;;;;;;;4.15;73.01;98241.84;12658142;23;20341;-78
2022/01/10 15:23:17;;;;;;;7.93;3.50;;;;;;;4.09;72.86;98261.34;12657780;23;20014;-77
2022/01/10 15:28:39;;;;;;;5.80;3.60;;;;;;;4.09;72.72;98266.13;12637855;23;20070;-77
2022/01/10 15:34:01;;;;;;;6.55;3.50;;;;;;;4.07;72.53;98279.75;12657504;23;20018;-77
2022/01/10 15:39:22;;;;;;;5.43;3.83;;;;;;;4.02;72.79;98301.44;12638715;23;20017;-77
2022/01/10 15:44:44;;;;;;;7.22;3.55;;;;;;;3.97;73.09;98299.56;12655109;23;20048;-78
2022/01/10 15:50:05;;;;;;;6.97;3.63;;;;;;;4.00;73.15;98317.06;12668900;23;20021;-80
2022/01/10 15:55:26;;;;;;;5.78;3.53;;;;;;;3.99;72.84;98312.81;12647723;23;20029;-80
2022/01/10 16:00:47;;;;;;;9.52;4.28;;;;;;;3.96;72.79;98330.47;12694317;23;20049;-80
2022/01/10 16:06:10;;;;;;;5.93;3.88;;;;;;;3.98;72.95;98333.44;12713996;23;20108;-78
2022/01/10 16:11:30;;;;;;;5.32;3.38;;;;;;;3.99;72.98;98343.94;12785663;23;20107;-77
2022/01/10 16:16:52;;;;;;;4.93;3.40;;;;;;;4.03;72.56;98349.13;12835336;23;20032;-80
2022/01/10 16:22:13;;;;;;;4.25;2.90;;;;;;;4.01;72.85;98357.22;12784182;23;20340;-77
2022/01/10 16:27:35;;;;;;;5.35;2.90;;;;;;;3.94;72.72;98360.63;12821242;23;20019;-77
2022/01/10 16:32:56;;;;;;;6.10;3.65;;;;;;;4.00;72.84;98377.84;12840803;23;20084;-77
2022/01/10 16:38:20;;;;;;;5.00;3.00;;;;;;;3.99;72.92;98390.91;12820880;23;20020;-78
2022/01/10 16:43:40;;;;;;;5.25;3.03;;;;;;;3.97;73.20;98392.72;12800781;23;20016;-77
2022/01/10 16:49:01;;;;;;;4.75;2.97;;;;;;;4.01;72.92;98412.47;12841010;23;20066;-77
2022/01/10 16:54:29;;;;;;;5.20;3.20;;;;;;;4.03;72.91;98421.72;12841713;23;20321;-80
2022/01/10 16:59:52;;;;;;;5.65;3.33;;;;;;;3.99;72.64;98431.59;12828248;23;20000;-83
2022/01/10 17:05:13;;;;;;;5.30;3.65;;;;;;;3.97;72.69;98437.66;12792557;23;20017;-81
2022/01/10 17:10:35;;;;;;;6.57;3.95;;;;;;;3.95;72.34;98450.50;12758925;23;20327;-79
2022/01/10 17:16:01;;;;;;;6.30;3.90;;;;;;;3.93;72.30;98462.09;12740786;23;20436;-76
2022/01/10 17:21:22;;;;;;;5.70;3.73;;;;;;;3.88;73.01;98478.78;12759465;23;20079;-76
2022/01/10 17:26:43;;;;;;;6.50;4.07;;;;;;;3.87;72.90;98477.31;12737994;23;20101;-76
2022/01/10 17:32:05;;;;;;;5.35;3.70;;;;;;;3.91;72.77;98494.28;12758034;23;20017;-76
2022/01/10 17:37:26;;;;;;;7.32;3.85;;;;;;;3.85;73.18;98496.41;12757720;23;20017;-78
2022/01/10 17:42:49;;;;;;;6.80;3.97;;;;;;;3.87;72.67;98515.97;12757514;23;20017;-77
2022/01/10 17:48:11;;;;;;;6.40;4.30;;;;;;;3.84;72.59;98519.78;12757524;23;20017;-77
2022/01/10 17:53:33;;;;;;;6.05;4.07;;;;;;;3.85;72.62;98532.31;12718527;23;20028;-75
2022/01/10 17:58:54;;;;;;;6.25;4.45;;;;;;;3.82;72.70;98536.13;12789747;23;20096;-80
2022/01/10 18:04:16;;;;;;;8.45;5.30;;;;;;;3.85;73.04;98546.13;12823224;23;20021;-81
2022/01/10 18:09:38;;;;;;;8.50;5.10;;;;;;;3.82;72.58;98552.72;12757971;23;20076;-78
2022/01/10 18:15:01;;;;;;;8.13;5.78;;;;;;;3.76;72.52;98566.59;12744511;23;20037;-79
2022/01/10 18:20:22;;;;;;;7.95;5.60;;;;;;;3.79;72.97;98570.34;12775660;23;20013;-80
2022/01/10 18:25:44;;;;;;;8.80;6.50;;;;;;;3.74;72.73;98580.94;12787783;23;20436;-79
2022/01/10 18:31:05;;;;;;;11.90;6.70;;;;;;;3.78;72.59;98585.44;12768166;23;20017;-79
2022/01/10 18:36:29;;;;;;;10.50;7.00;;;;;;;3.72;72.74;98588.28;12747751;23;20017;-79
2022/01/10 18:41:50;;;;;;;11.20;7.57;;;;;;;3.67;72.79;98595.41;12789755;23;20013;-80
2022/01/10 18:47:10;;;;;;;9.93;7.50;;;;;;;3.54;73.32;98608.41;12769167;23;20443;-79
2022/01/10 18:52:31;;;;;;;9.63;7.28;;;;;;;3.33;72.65;98614.50;12771478;23;20440;-80
2022/01/10 18:57:53;;;;;;;11.32;7.63;;;;;;;3.06;73.19;98616.38;12761655;23;20017;-74
2022/01/10 19:03:15;;;;;;;10.50;7.05;;;;;;;2.91;73.23;98624.38;12774702;23;20025;-75
2022/01/10 19:08:36;;;;;;;12.27;7.93;;;;;;;2.75;73.51;98630.84;12761076;23;20028;-74
2022/01/10 19:13:58;;;;;;;10.65;7.30;;;;;;;2.57;73.47;98641.31;12618964;23;20105;-74
2022/01/10 19:19:20;;;;;;;12.10;7.70;;;;;;;2.47;73.82;98644.94;12638226;23;20080;-74
2022/01/10 19:24:41;;;;;;;10.80;6.85;;;;;;;2.37;73.54;98649.31;12659052;23;20042;-74
2022/01/10 19:30:03;;;;;;;11.48;7.55;;;;;;;2.26;73.39;98656.44;12677990;23;20028;-74
2022/01/10 19:35:25;;;;;;;11.27;6.97;;;;;;;2.24;73.23;98666.50;12658861;23;20438;-74
2022/01/10 19:40:46;;;;;;;11.50;7.38;;;;;;;2.33;73.36;98674.41;12658360;23;20021;-74
2022/01/10 19:46:07;;;;;;;10.57;6.82;;;;;;;2.38;73.88;98673.59;12677444;23;20040;-74
2022/01/10 19:51:28;;;;;;;13.65;8.15;;;;;;;2.50;73.33;98679.75;12638071;23;20029;-74
2022/01/10 19:56:48;;;;;;;12.73;8.18;;;;;;;2.54;73.50;98680.97;12657074;23;20089;-74
2022/01/10 20:02:10;;;;;;;14.32;8.63;;;;;;;2.65;73.26;98690.38;12677223;23;20021;-74
2022/01/10 20:07:31;;;;;;;12.10;8.02;;;;;;;2.76;73.42;98701.25;12657086;23;20025;-74
2022/01/10 20:12:52;;;;;;;11.13;7.85;;;;;;;2.86;73.11;98705.16;12691505;23;20020;-74
2022/01/10 20:18:13;;;;;;;13.23;8.73;;;;;;;2.94;73.37;98716.34;12738008;23;20014;-77
2022/01/10 20:23:38;;;;;;;14.37;10.33;;;;;;;2.91;72.97;98715.38;12718819;23;20014;-76
2022/01/10 20:28:58;;;;;;;15.73;9.68;;;;;;;2.80;72.75;98724.53;12737942;23;20022;-76
2022/01/10 20:34:19;;;;;;;15.27;9.38;;;;;;;2.76;73.13;98739.88;12717251;23;20025;-76
2022/01/10 20:39:40;;;;;;;14.45;9.52;;;;;;;2.86;73.41;98741.75;12717989;23;20037;-77
2022/01/10 20:45:01;;;;;;;14.90;9.00;;;;;;;2.80;72.83;98745.84;12717382;23;20013;-77
2022/01/10 20:50:22;;;;;;;13.82;9.35;;;;;;;2.63;72.94;98745.28;12718366;23;20021;-78
2022/01/10 20:55:44;;;;;;;13.93;9.13;;;;;;;2.42;73.09;98751.25;12731568;23;20045;-79
2022/01/10 21:01:05;;;;;;;15.50;10.13;;;;;;;2.24;73.13;98752.66;12742560;23;20329;-80
2022/01/10 21:06:27;;;;;;;13.88;8.77;;;;;;;2.13;73.70;98754.75;12717996;23;20047;-79
2022/01/10 21:11:50;;;;;;;17.35;10.60;;;;;;;2.06;73.32;98769.06;12732712;23;20029;-79
2022/01/10 21:17:12;;;;;;;17.70;10.75;;;;;;;1.96;74.00;98765.88;12757127;23;20017;-80
2022/01/10 21:22:41;;;;;;;18.45;10.75;;;;;;;1.84;74.19;98769.97;12756237;23;20021;-79
2022/01/10 21:28:02;;;;;;;16.88;11.25;;;;;;;1.77;74.19;98776.78;12740519;23;20021;-80
2022/01/10 21:33:28;;;;;;;17.80;11.05;;;;;;;1.71;73.96;98785.06;12764658;23;20020;-80
2022/01/10 21:38:48;;;;;;;18.23;11.30;;;;;;;1.68;74.02;98797.09;12783404;23;20101;-80
2022/01/10 21:44:10;;;;;;;19.15;12.15;;;;;;;1.63;74.06;98797.84;12762504;23;20013;-80
2022/01/10 21:49:32;;;;;;;19.90;11.93;;;;;;;1.57;74.22;98807.41;12762812;23;20092;-80
2022/01/10 21:54:54;;;;;;;19.33;12.20;;;;;;;1.53;74.19;98823.44;12741972;23;20028;-80
2022/01/10 22:00:17;;;;;;;23.20;13.52;;;;;;;1.71;74.64;98825.59;12741377;23;20073;-80
2022/01/10 22:05:38;;;;;;;23.33;15.15;;;;;;;1.89;74.07;98829.75;12761432;23;20121;-78
2022/01/10 22:10:59;;;;;;;22.13;13.70;;;;;;;1.89;74.16;98844.28;12762784;23;20028;-77
2022/01/10 22:16:20;;;;;;;24.60;14.27;;;;;;;1.82;74.55;98850.31;12762042;23;20036;-78
2022/01/10 22:21:41;;;;;;;23.45;14.50;;;;;;;1.82;74.21;98850.31;12780936;23;20013;-78
2022/01/10 22:27:02;;;;;;;25.13;14.70;;;;;;;2.00;73.99;98857.22;12760828;23;20440;-78
2022/01/10 22:32:23;;;;;;;25.02;14.52;;;;;;;1.93;73.86;98866.03;12741415;23;20021;-77
2022/01/10 22:37:45;;;;;;;25.65;14.07;;;;;;;1.67;73.87;98866.41;12760451;23;20037;-78
2022/01/10 22:43:06;;;;;;;26.30;15.07;;;;;;;1.55;73.90;98875.97;12761532;23;20033;-78
2022/01/10 22:48:28;;;;;;;24.23;14.10;;;;;;;1.57;74.18;98884.47;12760449;23;20020;-78
2022/01/10 22:53:49;;;;;;;24.63;14.98;;;;;;;1.68;74.33;98893.44;12780994;23;20028;-77
2022/01/10 22:59:11;;;;;;;26.80;15.68;;;;;;;1.83;74.27;98898.59;12739825;23;20455;-78
2022/01/10 23:04:32;;;;;;;25.85;15.80;;;;;;;1.97;74.42;98910.59;12769488;23;20020;-78
2022/01/10 23:09:53;;;;;;;28.90;16.42;;;;;;;2.03;73.83;98914.06;12775851;23;20017;-77
2022/01/10 23:15:18;;;;;;;29.85;17.50;;;;;;;2.00;73.43;98921.31;12761292;23;20017;-77
2022/01/10 23:20:39;;;;;;;26.33;16.90;;;;;;;1.99;73.92;98917.06;12780401;23;20406;-77
2022/01/10 23:26:01;;;;;;;27.17;16.58;;;;;;;1.98;74.00;98918.31;12760586;23;20029;-77
2022/01/10 23:31:22;;;;;;;30.95;18.20;;;;;;;1.96;73.95;98923.59;12739944;23;20021;-77
2022/01/10 23:36:42;;;;;;;28.65;17.60;;;;;;;1.97;73.87;98927.84;12779862;23;20320;-77
2022/01/10 23:42:05;;;;;;;31.45;17.77;;;;;;;1.84;73.51;98924.91;12740071;23;20432;-77
2022/01/10 23:47:26;;;;;;;29.65;18.02;;;;;;;1.81;73.75;98925.91;12760774;23;20043;-77
2022/01/10 23:58:08;;;;;;;30.38;17.88;;;;;;;1.79;73.71;98930.44;12780050;23;20336;-77
